Time;durP1;ratioP1;P1;durP2;ratioP2;P2;SDS_P1;SDS_P2;PMS_P1;PMS_P2;Temp;Humidity;BMP_temperature;BMP_pressure;BME280_temperature;BME280_humidity;BME280_pressure;Samples;Min_cycle;Max_cycle;Signal;HPM_P1;HPM_P2
2022/09/17 00:01:36;;;;;;;2.30;1.60;;;;;;;29.35;35.18;98749.09;1891115;74;28316;-74
2022/09/17 00:04:26;;;;;;;1.70;1.60;;;;;;;29.34;35.14;98749.66;1902637;74;28610;-74
2022/09/17 00:07:16;;;;;;;2.47;1.53;;;;;;;29.33;35.18;98757.70;1899953;74;28059;-73
2022/09/17 00:10:05;;;;;;;1.62;1.50;;;;;;;29.33;35.17;98754.94;1898586;74;28086;-73
2022/09/17 00:12:54;;;;;;;1.73;1.63;;;;;;;29.31;35.19;98770.19;1896354;74;28195;-75
2022/09/17 00:15:45;;;;;;;1.60;1.50;;;;;;;29.30;35.22;98769.91;1910858;74;28625;-73
2022/09/17 00:18:35;;;;;;;1.77;1.67;;;;;;;29.27;35.22;98760.26;1902900;74;28071;-73
2022/09/17 00:21:25;;;;;;;1.70;1.60;;;;;;;29.24;35.29;98760.84;1909773;74;28242;-73
2022/09/17 00:24:15;;;;;;;1.70;1.60;;;;;;;29.25;35.24;98761.67;1909299;74;28185;-73
2022/09/17 00:27:03;;;;;;;1.80;1.70;;;;;;;29.20;35.36;98770.86;1887289;75;28173;-73
2022/09/17 00:29:52;;;;;;;1.40;1.40;;;;;;;29.21;35.33;98771.69;1889130;75;28300;-74
2022/09/17 00:32:41;;;;;;;1.50;1.40;;;;;;;29.19;35.37;98773.93;1889345;75;28087;-74
2022/09/17 00:35:30;;;;;;;1.60;1.50;;;;;;;29.19;35.38;98778.91;1927655;73;28124;-74
2022/09/17 00:38:18;;;;;;;2.60;1.40;;;;;;;29.16;35.40;98772.55;1922428;74;28097;-73
2022/09/17 00:41:08;;;;;;;1.50;1.40;;;;;;;29.15;35.40;98773.66;1901697;75;28079;-74
2022/09/17 00:43:59;;;;;;;1.35;1.35;;;;;;;29.14;35.44;98772.02;1911526;74;28133;-74
2022/09/17 00:46:49;;;;;;;1.40;1.30;;;;;;;29.13;35.45;98771.74;1901712;75;28109;-75
2022/09/17 00:49:38;;;;;;;1.42;1.32;;;;;;;29.12;35.43;98780.34;1889510;75;28026;-74
2022/09/17 00:52:39;;;;;;;1.40;1.30;;;;;;;29.12;35.37;98776.20;1889153;75;28020;-75
2022/09/17 00:55:37;;;;;;;1.17;1.17;;;;;;;29.12;35.28;98790.03;1889487;75;28095;-75
2022/09/17 00:58:26;;;;;;;1.35;1.27;;;;;;;29.09;35.27;98785.08;1889278;75;28083;-74
2022/09/17 01:01:15;;;;;;;1.35;1.35;;;;;;;29.06;35.28;98798.09;1902235;73;31059;-76
2022/09/17 01:04:03;;;;;;;1.20;1.20;;;;;;;29.06;35.28;98796.16;1888816;75;28049;-75
2022/09/17 01:07:11;;;;;;;1.35;1.30;;;;;;;29.07;35.21;98805.30;1900208;75;28063;-75
2022/09/17 01:10:18;;;;;;;1.70;1.30;;;;;;;29.09;35.16;98809.97;1911280;73;28192;-74
2022/09/17 01:13:38;;;;;;;1.35;1.35;;;;;;;29.03;35.15;98813.92;1895462;74;28092;-74
2022/09/17 01:16:32;;;;;;;1.30;1.20;;;;;;;29.01;35.15;98817.54;1901521;75;28098;-74
2022/09/17 01:19:55;;;;;;;1.30;1.20;;;;;;;28.97;35.18;98839.41;1889392;75;28112;-74
2022/09/17 01:23:20;;;;;;;1.20;1.20;;;;;;;29.00;35.08;98829.70;1901347;73;28073;-73
2022/09/17 01:26:18;;;;;;;1.30;1.30;;;;;;;28.92;35.15;98842.22;1924145;73;28132;-73
2022/09/17 01:29:28;;;;;;;1.30;1.30;;;;;;;28.91;35.18;98852.20;1889384;74;28017;-73
2022/09/17 01:32:26;;;;;;;1.27;1.27;;;;;;;28.93;35.09;98852.73;1889015;75;28098;-74
2022/09/17 01:35:25;;;;;;;1.40;1.30;;;;;;;28.90;35.11;98845.84;1901518;75;28075;-73
2022/09/17 01:38:23;;;;;;;1.65;1.20;;;;;;;28.92;35.10;98840.01;1889238;75;28016;-73
2022/09/17 01:41:42;;;;;;;1.12;1.12;;;;;;;28.92;35.00;98849.13;1901540;75;28098;-73
2022/09/17 01:44:33;;;;;;;1.30;1.30;;;;;;;28.91;35.05;98851.65;1904947;74;28098;-74
2022/09/17 01:47:24;;;;;;;1.20;1.20;;;;;;;28.89;35.06;98850.29;1874151;75;32099;-74
2022/09/17 01:50:16;;;;;;;1.07;1.07;;;;;;;28.88;35.08;98856.38;1889346;75;28106;-74
2022/09/17 01:53:08;;;;;;;1.12;1.12;;;;;;;28.92;35.02;98846.37;1889225;75;28029;-74
2022/09/17 01:55:59;;;;;;;1.85;1.02;;;;;;;28.93;35.05;98853.56;1889411;75;28063;-74
2022/09/17 01:58:50;;;;;;;1.30;1.20;;;;;;;28.94;34.96;98862.69;1889330;75;28164;-74
2022/09/17 02:01:41;;;;;;;1.65;1.17;;;;;;;28.97;34.87;98865.67;1871939;75;28139;-73
2022/09/17 02:04:35;;;;;;;1.50;1.40;;;;;;;28.97;34.80;98857.93;1903185;73;28104;-74
2022/09/17 02:07:29;;;;;;;1.25;1.10;;;;;;;28.98;34.77;98867.34;1915148;73;32069;-73
2022/09/17 02:10:24;;;;;;;1.65;1.20;;;;;;;29.00;34.74;98865.11;1901511;75;28016;-75
2022/09/17 02:13:20;;;;;;;1.00;1.00;;;;;;;29.00;34.72;98865.66;1901698;75;28200;-74
2022/09/17 02:16:16;;;;;;;1.00;1.00;;;;;;;29.01;34.73;98862.59;1901732;75;38324;-74
2022/09/17 02:19:22;;;;;;;1.20;1.20;;;;;;;29.01;34.70;98877.80;1912682;74;28114;-76
2022/09/17 02:22:29;;;;;;;1.00;1.00;;;;;;;29.03;34.71;98874.76;1900994;74;28097;-86
2022/09/17 02:25:32;;;;;;;1.00;1.00;;;;;;;28.99;34.76;98873.12;1921275;73;28039;-72
2022/09/17 02:28:49;;;;;;;0.90;0.90;;;;;;;29.00;34.73;98865.66;1889301;75;28207;-72
2022/09/17 02:31:39;;;;;;;1.20;1.00;;;;;;;29.00;34.72;98873.95;1889482;75;28104;-72
2022/09/17 02:34:29;;;;;;;1.10;1.10;;;;;;;28.96;34.76;98879.81;1900908;74;28013;-71
2022/09/17 02:37:19;;;;;;;1.10;1.10;;;;;;;29.00;34.68;98873.41;1906435;73;28114;-73
2022/09/17 02:40:11;;;;;;;1.20;1.20;;;;;;;29.01;34.64;98879.18;1889347;75;28104;-72
2022/09/17 02:43:05;;;;;;;1.10;1.10;;;;;;;29.04;34.61;98879.16;1901499;75;28171;-73
2022/09/17 02:46:12;;;;;;;1.15;1.10;;;;;;;29.03;34.61;98874.76;1889357;75;28581;-71
2022/09/17 02:49:20;;;;;;;1.20;1.20;;;;;;;29.05;34.56;98883.59;1889493;75;28088;-71
2022/09/17 02:52:17;;;;;;;1.00;1.00;;;;;;;29.02;34.54;98875.86;1923867;73;28089;-71
2022/09/17 02:55:22;;;;;;;1.10;1.10;;;;;;;29.01;34.55;98885.30;1889298;75;28148;-72
2022/09/17 02:58:40;;;;;;;0.90;0.90;;;;;;;28.99;34.61;98884.18;1915475;74;28160;-73
2022/09/17 03:01:38;;;;;;;1.17;1.10;;;;;;;28.99;34.61;98899.39;1908109;73;28200;-73
2022/09/17 03:04:29;;;;;;;1.05;1.05;;;;;;;28.96;34.64;98901.93;1898698;73;28168;-72
2022/09/17 03:07:20;;;;;;;0.90;0.90;;;;;;;28.97;34.58;98901.63;1904892;74;28113;-72
2022/09/17 03:10:08;;;;;;;1.00;1.00;;;;;;;29.01;34.52;98894.39;1901483;75;28042;-72
2022/09/17 03:12:57;;;;;;;0.93;0.93;;;;;;;29.05;34.48;98895.48;1923715;73;28178;-72
2022/09/17 03:15:45;;;;;;;0.90;0.90;;;;;;;29.05;34.47;98897.41;1889405;75;28013;-72
2022/09/17 03:18:37;;;;;;;1.02;1.02;;;;;;;29.05;34.42;98907.09;1917970;73;28015;-72
2022/09/17 03:21:25;;;;;;;1.40;1.00;;;;;;;29.05;34.47;98901.56;1912076;74;28125;-73
2022/09/17 03:24:14;;;;;;;0.90;0.90;;;;;;;29.06;34.45;98910.11;1901587;75;28099;-73
2022/09/17 03:27:06;;;;;;;0.78;0.78;;;;;;;29.07;34.46;98900.16;1901594;75;28021;-73
2022/09/17 03:29:54;;;;;;;0.98;0.98;;;;;;;29.06;34.43;98901.81;1889459;75;30013;-73
2022/09/17 03:32:43;;;;;;;1.22;1.10;;;;;;;29.02;34.49;98903.52;1915037;74;28067;-73
2022/09/17 03:35:31;;;;;;;1.10;1.00;;;;;;;29.01;34.52;98901.30;1905552;74;28012;-73
2022/09/17 03:38:19;;;;;;;1.10;0.90;;;;;;;29.03;34.50;98903.25;1907823;74;28192;-74
2022/09/17 03:41:08;;;;;;;0.90;0.90;;;;;;;29.02;34.51;98904.34;1896162;75;28105;-73
2022/09/17 03:43:56;;;;;;;0.85;0.85;;;;;;;29.06;34.45;98907.34;1899934;74;38345;-73
2022/09/17 03:46:45;;;;;;;1.30;1.00;;;;;;;29.05;34.39;98909.30;1903017;74;28130;-73
2022/09/17 03:49:33;;;;;;;1.00;1.00;;;;;;;29.04;34.41;98916.49;1904584;74;28102;-73
2022/09/17 03:52:22;;;;;;;0.90;0.90;;;;;;;29.04;34.42;98913.73;1895989;75;31133;-72
2022/09/17 03:55:12;;;;;;;0.80;0.80;;;;;;;29.03;34.39;98922.61;1918789;74;28179;-73
2022/09/17 03:58:00;;;;;;;1.00;1.00;;;;;;;29.04;34.39;98921.47;1898112;74;28076;-75
2022/09/17 04:00:52;;;;;;;0.90;0.90;;;;;;;29.05;34.40;98924.52;1907384;74;28650;-73
2022/09/17 04:03:39;;;;;;;1.10;1.10;;;;;;;29.05;34.39;98909.30;1904607;74;28066;-72
2022/09/17 04:06:27;;;;;;;0.90;0.90;;;;;;;29.03;34.37;98912.09;1921546;74;28098;-73
2022/09/17 04:09:16;;;;;;;1.00;1.00;;;;;;;29.05;34.34;98918.16;1910387;74;28018;-73
2022/09/17 04:12:04;;;;;;;0.80;0.80;;;;;;;29.03;34.37;98924.54;1907286;74;27989;-73
2022/09/17 04:14:52;;;;;;;0.87;0.87;;;;;;;29.02;34.34;98924.26;1903166;74;28038;-73
2022/09/17 04:17:41;;;;;;;0.90;0.90;;;;;;;29.02;34.33;98922.33;1900315;74;28285;-73
2022/09/17 04:20:29;;;;;;;0.80;0.80;;;;;;;29.03;34.31;98928.69;1896103;75;28107;-73
2022/09/17 04:23:18;;;;;;;0.80;0.80;;;;;;;29.03;34.31;98930.91;1905658;74;28061;-73
2022/09/17 04:26:07;;;;;;;0.85;0.85;;;;;;;29.04;34.25;98923.41;1917624;74;27975;-74
2022/09/17 04:28:57;;;;;;;0.75;0.75;;;;;;;29.03;34.30;98921.22;1918595;74;28010;-73
2022/09/17 04:31:46;;;;;;;0.90;0.90;;;;;;;29.02;34.33;98932.00;1910236;74;28244;-74
2022/09/17 04:34:34;;;;;;;0.80;0.80;;;;;;;28.99;34.37;98926.21;1862543;76;28300;-73
2022/09/17 04:37:24;;;;;;;1.02;1.02;;;;;;;29.01;34.36;98929.54;1897435;74;28169;-73
2022/09/17 04:40:12;;;;;;;1.10;0.90;;;;;;;29.02;34.29;98929.79;1872559;74;28213;-73
2022/09/17 04:43:03;;;;;;;1.00;1.00;;;;;;;29.03;34.25;98940.58;1890116;74;28120;-73
2022/09/17 04:45:51;;;;;;;0.80;0.80;;;;;;;29.01;34.28;98948.31;1876642;76;28198;-73
2022/09/17 04:48:41;;;;;;;0.98;0.98;;;;;;;29.01;34.23;98950.28;1875072;76;28063;-72
2022/09/17 04:51:34;;;;;;;0.88;0.88;;;;;;;29.00;34.26;98949.45;1876013;76;35229;-73
2022/09/17 04:54:27;;;;;;;0.80;0.80;;;;;;;29.01;34.26;98953.05;1876284;76;28086;-73
2022/09/17 04:57:16;;;;;;;0.70;0.70;;;;;;;28.98;34.23;98959.98;1877033;76;28171;-73
2022/09/17 05:00:11;;;;;;;0.90;0.90;;;;;;;28.98;34.25;98959.14;1897208;74;28743;-72
2022/09/17 05:02:56;;;;;;;0.70;0.70;;;;;;;28.99;34.26;98956.63;1897010;74;28060;-73
2022/09/17 05:05:45;;;;;;;0.70;0.70;;;;;;;28.98;34.24;98962.75;1875534;76;28188;-73
2022/09/17 05:08:33;;;;;;;0.90;0.90;;;;;;;28.98;34.24;98964.13;1889608;74;28110;-73
2022/09/17 05:11:21;;;;;;;0.98;0.70;;;;;;;28.97;34.17;98976.84;1878000;74;33064;-74
2022/09/17 05:14:12;;;;;;;0.70;0.70;;;;;;;28.97;34.22;98979.05;1896799;74;28182;-74
2022/09/17 05:17:02;;;;;;;0.80;0.80;;;;;;;28.99;34.15;98977.38;1894753;74;28119;-73
2022/09/17 05:19:52;;;;;;;0.78;0.68;;;;;;;28.97;34.18;98981.81;1875530;76;28800;-73
2022/09/17 05:22:43;;;;;;;1.10;0.80;;;;;;;28.97;34.15;98972.69;1905057;74;28133;-73
2022/09/17 05:25:31;;;;;;;0.80;0.80;;;;;;;28.98;34.11;98983.48;1885886;74;38549;-73
2022/09/17 05:28:21;;;;;;;0.60;0.60;;;;;;;28.96;34.09;98984.89;1893759;74;28164;-73
2022/09/17 05:31:12;;;;;;;0.70;0.70;;;;;;;28.96;34.09;98991.80;1876603;76;28135;-73
2022/09/17 05:34:00;;;;;;;0.70;0.70;;;;;;;28.92;34.15;98992.91;1903541;73;28544;-73
2022/09/17 05:36:49;;;;;;;0.68;0.68;;;;;;;28.92;34.17;98986.55;1950166;73;28036;-73
2022/09/17 05:39:42;;;;;;;0.70;0.70;;;;;;;28.93;34.16;98993.75;1917400;74;28384;-74
2022/09/17 05:42:30;;;;;;;0.90;0.60;;;;;;;28.92;34.13;98999.00;1917526;74;28045;-72
2022/09/17 05:45:18;;;;;;;0.50;0.50;;;;;;;28.93;34.15;99000.66;1940129;73;28076;-73
2022/09/17 05:48:09;;;;;;;0.70;0.70;;;;;;;28.94;34.09;99010.63;1917756;74;28189;-73
2022/09/17 05:50:57;;;;;;;0.70;0.70;;;;;;;28.93;34.12;99013.10;1939425;73;28006;-73
2022/09/17 05:53:47;;;;;;;0.90;0.90;;;;;;;28.94;34.09;99014.77;1940390;73;28087;-73
2022/09/17 05:56:37;;;;;;;1.00;1.00;;;;;;;28.92;34.13;99015.03;1917388;74;27981;-73
2022/09/17 05:59:26;;;;;;;0.80;0.80;;;;;;;28.95;34.10;99020.55;1917339;74;28115;-74
2022/09/17 06:02:16;;;;;;;0.88;0.88;;;;;;;28.95;34.05;99024.70;1904462;73;28079;-71
2022/09/17 06:05:05;;;;;;;0.70;0.70;;;;;;;28.91;34.12;99034.14;1906696;74;28266;-71
2022/09/17 06:07:55;;;;;;;0.65;0.65;;;;;;;28.92;34.39;99020.56;1889324;74;28137;-71
2022/09/17 06:10:45;;;;;;;1.02;0.95;;;;;;;28.95;34.78;99023.31;1917646;74;28165;-74
2022/09/17 06:13:34;;;;;;;1.23;0.90;;;;;;;28.98;34.98;99016.67;1888534;74;28124;-76
2022/09/17 06:16:23;;;;;;;7.57;2.83;;;;;;;28.93;35.35;99027.77;1894652;74;28091;-75
2022/09/17 06:19:12;;;;;;;4.60;2.27;;;;;;;28.92;35.69;99020.56;1913620;74;28260;-73
2022/09/17 06:22:02;;;;;;;5.15;2.00;;;;;;;28.93;35.79;99026.93;1904280;74;28163;-73
2022/09/17 06:24:50;;;;;;;2.37;1.27;;;;;;;28.90;36.23;99017.81;1884549;75;28117;-73
2022/09/17 06:27:47;;;;;;;3.22;1.12;;;;;;;28.93;36.21;99024.16;1893912;74;38489;-77
2022/09/17 06:30:45;;;;;;;1.90;1.13;;;;;;;28.90;36.02;99034.41;1895140;74;28096;-81
2022/09/17 06:33:35;;;;;;;3.95;1.12;;;;;;;28.84;36.20;99052.16;1895150;74;28187;-72
2022/09/17 06:36:23;;;;;;;1.20;1.00;;;;;;;28.95;36.28;99054.56;1898231;74;28258;-73
2022/09/17 06:39:12;;;;;;;1.15;1.05;;;;;;;29.03;36.37;99053.97;1899360;74;28139;-76
2022/09/17 06:42:00;;;;;;;2.75;1.17;;;;;;;29.08;36.37;99051.72;1904954;74;28349;-78
2022/09/17 06:44:49;;;;;;;2.92;0.90;;;;;;;29.13;36.40;99054.42;1907803;74;28150;-77
2022/09/17 06:47:39;;;;;;;1.50;1.20;;;;;;;29.20;36.50;99068.23;1896535;74;28120;-68
2022/09/17 06:50:28;;;;;;;0.70;0.70;;;;;;;29.25;36.94;99061.28;1894707;74;28085;-76
2022/09/17 06:53:18;;;;;;;0.70;0.70;;;;;;;28.86;31.39;99075.64;1901682;74;28137;-75
2022/09/17 06:56:08;;;;;;;0.80;0.68;;;;;;;28.28;28.74;99076.46;1889703;74;28123;-68
2022/09/17 06:58:57;;;;;;;0.78;0.78;;;;;;;27.74;27.73;99090.09;1884800;75;28133;-75
2022/09/17 07:01:46;;;;;;;0.50;0.50;;;;;;;27.63;27.72;99057.56;1887448;74;28251;-73
2022/09/17 07:04:35;;;;;;;1.07;0.80;;;;;;;27.74;28.24;99061.12;1910203;74;28589;-75
2022/09/17 07:07:23;;;;;;;1.40;0.70;;;;;;;27.89;28.98;99083.19;1881222;75;28117;-74
2022/09/17 07:10:11;;;;;;;0.60;0.60;;;;;;;27.90;29.20;99059.42;1884582;75;28096;-77
2022/09/17 07:13:00;;;;;;;0.85;0.70;;;;;;;28.01;29.02;99059.70;1908849;74;28118;-77
2022/09/17 07:16:00;;;;;;;0.50;0.50;;;;;;;28.07;28.53;99059.14;1886082;74;28167;-78
2022/09/17 07:18:48;;;;;;;0.70;0.70;;;;;;;28.15;28.42;99062.69;1900805;74;28779;-78
2022/09/17 07:21:36;;;;;;;0.50;0.50;;;;;;;28.17;28.28;99054.14;1896867;74;28042;-78
2022/09/17 07:24:30;;;;;;;1.05;0.70;;;;;;;28.21;28.17;99041.41;1892012;74;27991;-77
2022/09/17 07:27:18;;;;;;;0.60;0.60;;;;;;;28.25;28.14;99061.27;1856225;76;28213;-77
2022/09/17 07:30:08;;;;;;;0.50;0.50;;;;;;;28.31;28.08;99063.47;1842857;76;28236;-76
2022/09/17 07:32:58;;;;;;;0.60;0.60;;;;;;;28.32;28.06;99067.33;1817314;77;38640;-79
2022/09/17 07:35:57;;;;;;;0.57;0.57;;;;;;;28.30;28.08;99065.41;1839074;76;28282;-79
2022/09/17 07:38:46;;;;;;;0.60;0.60;;;;;;;28.35;28.11;99066.77;1822739;77;28197;-80
2022/09/17 07:41:35;;;;;;;0.60;0.60;;;;;;;28.34;28.19;99067.03;1828635;77;28306;-76
2022/09/17 07:44:24;;;;;;;0.60;0.60;;;;;;;28.35;28.43;99054.88;1819162;78;28329;-77
2022/09/17 07:47:13;;;;;;;0.60;0.60;;;;;;;28.45;28.98;99062.55;1877766;75;28487;-77
2022/09/17 07:50:02;;;;;;;0.45;0.45;;;;;;;28.52;29.00;99053.41;1883472;75;28072;-76
2022/09/17 07:52:50;;;;;;;0.70;0.50;;;;;;;28.58;29.19;99061.95;1859112;75;28068;-73
2022/09/17 07:55:40;;;;;;;0.50;0.50;;;;;;;28.59;29.18;99073.88;1870898;75;28190;-76
2022/09/17 07:58:32;;;;;;;0.45;0.45;;;;;;;28.61;29.17;99050.34;1863467;75;28155;-74
2022/09/17 08:01:21;;;;;;;0.60;0.60;;;;;;;28.64;28.94;99053.92;1875978;75;27961;-75
2022/09/17 08:04:10;;;;;;;0.42;0.42;;;;;;;28.63;28.88;99052.29;1868871;76;28113;-79
2022/09/17 08:06:59;;;;;;;0.50;0.50;;;;;;;28.65;28.86;99054.76;1889029;75;28073;-76
2022/09/17 08:09:47;;;;;;;1.12;0.50;;;;;;;28.69;28.78;99032.34;1858895;75;28255;-69
2022/09/17 08:12:35;;;;;;;0.68;0.60;;;;;;;28.64;28.69;99031.81;1861735;74;28115;-74
2022/09/17 08:15:25;;;;;;;1.70;0.72;;;;;;;28.68;29.41;99023.22;1868677;76;28181;-74
2022/09/17 08:18:17;;;;;;;1.02;0.93;;;;;;;28.81;30.47;99011.25;1856815;77;28152;-82
2022/09/17 08:21:08;;;;;;;2.00;0.90;;;;;;;28.85;30.72;99038.58;1868655;76;28763;-80
2022/09/17 08:23:56;;;;;;;0.90;0.90;;;;;;;28.87;30.37;99094.45;1880168;75;28269;-80
2022/09/17 08:26:44;;;;;;;0.98;0.80;;;;;;;28.83;29.70;99054.09;1889438;75;31988;-72
2022/09/17 08:29:33;;;;;;;0.78;0.78;;;;;;;28.81;29.38;99056.87;1888648;74;28181;-79
2022/09/17 08:32:21;;;;;;;1.07;0.98;;;;;;;28.76;28.94;99070.17;1856038;77;28179;-79
2022/09/17 08:35:10;;;;;;;0.70;0.70;;;;;;;28.73;28.45;99080.41;1879582;75;28614;-78
2022/09/17 08:37:58;;;;;;;0.80;0.80;;;;;;;28.69;28.25;99087.63;1819113;78;28284;-77
2022/09/17 08:40:59;;;;;;;0.70;0.70;;;;;;;28.70;28.13;99078.23;1798663;78;28170;-78
2022/09/17 08:44:07;;;;;;;0.90;0.90;;;;;;;28.66;28.13;99070.22;1805356;78;28258;-78
2022/09/17 08:47:05;;;;;;;0.70;0.70;;;;;;;28.60;28.13;99063.91;1829321;76;28197;-78
2022/09/17 08:49:59;;;;;;;1.15;0.93;;;;;;;28.57;28.19;99067.75;1792512;78;28279;-79
2022/09/17 08:53:07;;;;;;;0.80;0.80;;;;;;;28.54;28.31;99064.99;1833161;77;28247;-80
2022/09/17 08:56:05;;;;;;;1.20;0.80;;;;;;;28.54;28.41;99073.28;1850876;77;28179;-78
2022/09/17 08:59:07;;;;;;;2.27;0.82;;;;;;;28.48;28.62;99062.00;1798909;78;28425;-81
2022/09/17 09:02:17;;;;;;;0.80;0.80;;;;;;;28.49;28.72;99059.52;1835391;77;28759;-79
2022/09/17 09:05:32;;;;;;;1.50;1.12;;;;;;;28.45;29.11;99081.90;1868317;75;28137;-73
2022/09/17 09:08:26;;;;;;;1.45;1.17;;;;;;;28.46;29.25;99069.75;1881331;75;28206;-72
2022/09/17 09:11:17;;;;;;;1.57;1.40;;;;;;;28.43;29.37;99062.02;1869626;74;28217;-73
2022/09/17 09:14:08;;;;;;;1.55;1.42;;;;;;;28.44;29.39;99055.39;1830126;77;28704;-73
2022/09/17 09:16:58;;;;;;;1.65;1.55;;;;;;;28.46;29.44;99068.92;1819785;78;28767;-74
2022/09/17 09:19:49;;;;;;;1.52;1.42;;;;;;;28.46;29.46;99071.13;1795883;78;31290;-73
2022/09/17 09:22:52;;;;;;;1.45;1.37;;;;;;;28.48;29.50;99069.45;1856556;76;28092;-73
2022/09/17 09:25:43;;;;;;;1.90;1.50;;;;;;;28.47;29.61;99061.71;1891059;75;28225;-74
2022/09/17 09:28:46;;;;;;;1.45;1.42;;;;;;;28.45;29.66;99065.31;1877168;75;28221;-80
2022/09/17 09:32:00;;;;;;;1.40;1.30;;;;;;;28.42;29.75;99076.96;1845249;77;28304;-74
2022/09/17 09:34:50;;;;;;;2.35;1.60;;;;;;;28.43;29.81;99062.02;1857672;75;28200;-84
2022/09/17 09:37:42;;;;;;;1.40;1.40;;;;;;;28.40;29.90;99049.34;1860257;76;28280;-76
2022/09/17 09:40:55;;;;;;;1.57;1.47;;;;;;;28.40;29.89;99046.00;1875958;75;28227;-76
2022/09/17 09:43:49;;;;;;;1.55;1.40;;;;;;;28.37;29.93;99047.13;1842955;75;28293;-76
2022/09/17 09:46:58;;;;;;;1.77;1.60;;;;;;;28.35;29.96;99028.09;1864932;75;28287;-75
2022/09/17 09:50:03;;;;;;;1.62;1.50;;;;;;;28.39;29.95;99018.66;1878236;75;28184;-77
2022/09/17 09:53:06;;;;;;;1.55;1.45;;;;;;;28.38;30.07;99046.04;1877318;75;28160;-73
2022/09/17 09:56:27;;;;;;;1.50;1.40;;;;;;;28.40;30.04;99050.72;1868412;76;28155;-76
2022/09/17 09:59:15;;;;;;;1.57;1.47;;;;;;;28.34;29.99;99020.06;1869102;75;28113;-74
2022/09/17 10:02:04;;;;;;;1.85;1.50;;;;;;;28.37;30.10;99021.72;1869179;76;28103;-75
2022/09/17 10:04:52;;;;;;;2.00;1.80;;;;;;;28.37;30.08;99040.23;1864206;76;28246;-74
2022/09/17 10:07:46;;;;;;;2.15;1.70;;;;;;;28.44;29.94;99028.31;1888487;75;28166;-74
2022/09/17 10:10:38;;;;;;;2.92;1.70;;;;;;;28.41;29.96;99026.94;1891244;74;28229;-74
2022/09/17 10:13:30;;;;;;;1.75;1.65;;;;;;;28.39;29.80;99008.45;1869218;76;28254;-73
2022/09/17 10:16:28;;;;;;;3.08;1.70;;;;;;;28.36;29.55;99017.84;1890528;75;28204;-73
2022/09/17 10:19:24;;;;;;;1.50;1.40;;;;;;;28.34;29.39;99000.73;1890655;75;28269;-74
2022/09/17 10:22:21;;;;;;;1.60;1.50;;;;;;;28.31;29.23;99011.79;1890521;75;28186;-74
2022/09/17 10:25:24;;;;;;;1.10;1.10;;;;;;;28.31;29.02;99017.31;1878122;74;28076;-82
2022/09/17 10:28:30;;;;;;;1.80;1.33;;;;;;;28.30;28.85;99014.84;1877961;75;28130;-82
2022/09/17 10:31:20;;;;;;;1.35;1.25;;;;;;;28.25;28.83;99024.53;1873487;75;33111;-83
2022/09/17 10:34:12;;;;;;;2.05;1.50;;;;;;;28.22;28.94;99023.70;1889591;75;28061;-78
2022/09/17 10:37:01;;;;;;;1.23;1.20;;;;;;;28.23;29.15;99026.20;1898406;75;27745;-81
2022/09/17 10:39:52;;;;;;;1.40;1.30;;;;;;;28.24;29.14;99023.70;1866274;75;28579;-80
2022/09/17 10:42:41;;;;;;;1.45;1.37;;;;;;;28.26;29.12;99029.80;1836957;76;28275;-85
2022/09/17 10:45:32;;;;;;;1.47;1.37;;;;;;;28.28;29.02;99021.21;1879882;75;28219;-86
2022/09/17 10:48:22;;;;;;;1.42;1.32;;;;;;;28.30;28.97;99035.56;1833469;75;28229;-86
2022/09/17 10:51:13;;;;;;;1.25;1.25;;;;;;;28.28;28.88;99026.73;1848659;76;28254;-88
2022/09/17 10:54:14;;;;;;;1.25;1.25;;;;;;;28.22;28.78;99010.73;1837826;76;28377;-85
2022/09/17 10:57:05;;;;;;;1.20;1.20;;;;;;;28.26;28.72;99039.46;1853576;76;28260;-74
2022/09/17 10:59:57;;;;;;;1.07;1.07;;;;;;;28.22;28.67;99020.95;1861202;75;28116;-75
2022/09/17 11:03:11;;;;;;;1.10;1.10;;;;;;;28.20;28.62;99043.34;1877070;75;28174;-76
2022/09/17 11:06:10;;;;;;;1.50;1.40;;;;;;;28.15;28.56;99038.38;1842019;76;28329;-74
2022/09/17 11:09:04;;;;;;;1.30;1.20;;;;;;;28.10;28.52;99035.08;1840942;76;28220;-75
2022/09/17 11:12:17;;;;;;;1.17;1.17;;;;;;;28.11;28.46;99048.34;1834857;77;28297;-75
2022/09/17 11:15:40;;;;;;;1.30;1.10;;;;;;;28.13;28.38;99038.67;1870010;74;28089;-78
2022/09/17 11:18:41;;;;;;;1.50;1.10;;;;;;;28.06;28.40;99057.47;1847541;76;28200;-77
2022/09/17 11:21:45;;;;;;;1.55;1.15;;;;;;;28.02;28.37;99053.63;1771116;80;28351;-78
2022/09/17 11:24:47;;;;;;;1.07;1.00;;;;;;;28.00;28.34;99042.88;1857691;74;28259;-78
2022/09/17 11:27:39;;;;;;;1.90;1.10;;;;;;;28.00;28.36;99041.49;1856837;76;28189;-78
2022/09/17 11:30:30;;;;;;;1.17;1.10;;;;;;;28.00;28.29;99048.39;1866990;75;28251;-78
2022/09/17 11:33:21;;;;;;;1.07;1.07;;;;;;;28.01;28.25;99047.81;1870972;75;28170;-78
2022/09/17 11:36:17;;;;;;;1.27;1.10;;;;;;;28.01;28.20;99053.34;1858882;75;28230;-79
2022/09/17 11:39:11;;;;;;;1.87;1.07;;;;;;;27.98;28.17;99057.45;1857062;75;29256;-78
2022/09/17 11:42:02;;;;;;;1.10;1.10;;;;;;;28.01;28.10;99064.39;1850810;77;28262;-78
2022/09/17 11:44:58;;;;;;;0.98;0.98;;;;;;;28.01;28.20;99051.96;1846493;77;28238;-76
2022/09/17 11:47:54;;;;;;;0.80;0.80;;;;;;;28.00;28.38;99045.63;1826142;78;28290;-77
2022/09/17 11:50:50;;;;;;;1.05;0.90;;;;;;;28.00;28.46;99059.98;1841604;77;28294;-80
2022/09/17 11:53:48;;;;;;;0.82;0.82;;;;;;;28.02;28.65;99072.41;1842666;77;28282;-77
2022/09/17 11:56:45;;;;;;;0.70;0.70;;;;;;;28.03;28.85;99053.34;1833806;75;28113;-77
2022/09/17 11:59:37;;;;;;;0.88;0.88;;;;;;;28.03;29.05;99051.95;1844145;77;28180;-78
2022/09/17 12:02:45;;;;;;;1.17;1.07;;;;;;;28.04;28.92;99055.00;1840657;77;28246;-75
2022/09/17 12:05:36;;;;;;;0.72;0.72;;;;;;;28.13;29.15;99039.22;1791116;75;31351;-78
2022/09/17 12:08:40;;;;;;;1.00;1.00;;;;;;;28.11;29.65;99058.00;1840499;77;28290;-76
2022/09/17 12:11:38;;;;;;;1.00;0.88;;;;;;;28.15;29.70;99038.38;1841563;77;28632;-73
2022/09/17 12:14:38;;;;;;;1.30;1.20;;;;;;;28.16;29.64;99053.85;1850630;75;28315;-81
2022/09/17 12:17:33;;;;;;;1.45;1.35;;;;;;;28.17;29.27;99021.80;1814475;77;28379;-80
2022/09/17 12:20:34;;;;;;;1.20;1.20;;;;;;;28.14;28.99;99051.38;1825118;77;28339;-78
2022/09/17 12:23:28;;;;;;;1.50;1.40;;;;;;;28.13;28.89;99042.81;1795589;78;28363;-77
2022/09/17 12:26:41;;;;;;;1.40;1.30;;;;;;;28.13;28.89;99041.43;1816930;78;28236;-77
2022/09/17 12:29:35;;;;;;;1.45;1.40;;;;;;;28.15;28.78;99034.23;1835229;77;28237;-75
2022/09/17 12:32:45;;;;;;;1.27;1.17;;;;;;;28.12;28.63;99016.32;1847605;77;28312;-76
2022/09/17 12:36:07;;;;;;;1.40;1.30;;;;;;;28.11;28.44;99033.98;1822254;77;28215;-75
2022/09/17 12:39:17;;;;;;;1.10;1.10;;;;;;;28.08;28.27;99046.16;1826125;77;28254;-75
2022/09/17 12:42:28;;;;;;;1.10;1.10;;;;;;;28.05;28.25;99037.30;1854186;76;28313;-76
2022/09/17 12:45:30;;;;;;;1.17;1.15;;;;;;;28.04;28.26;99039.81;1858630;75;28270;-75
2022/09/17 12:48:38;;;;;;;0.80;0.80;;;;;;;28.04;28.18;99056.93;1862728;76;28164;-75
2022/09/17 12:51:40;;;;;;;0.90;0.90;;;;;;;28.05;28.16;99054.45;1858868;76;28190;-76
2022/09/17 12:54:49;;;;;;;0.93;0.93;;;;;;;28.06;28.08;99042.28;1837874;76;28145;-75
2022/09/17 12:57:49;;;;;;;0.90;0.90;;;;;;;28.07;28.13;99039.81;1863135;76;28180;-74
2022/09/17 13:00:52;;;;;;;1.50;1.10;;;;;;;28.06;28.09;99041.73;1865188;76;28195;-77
2022/09/17 13:03:46;;;;;;;1.10;1.10;;;;;;;27.97;28.12;99025.99;1857523;76;28266;-79
2022/09/17 13:06:46;;;;;;;0.98;0.98;;;;;;;28.06;28.21;99043.11;1857634;76;28276;-79
2022/09/17 13:09:44;;;;;;;0.82;0.82;;;;;;;28.09;28.29;99041.73;1848984;76;28189;-79
2022/09/17 13:13:01;;;;;;;1.80;0.80;;;;;;;28.11;28.35;99034.53;1854455;76;28301;-78
2022/09/17 13:15:55;;;;;;;1.03;0.90;;;;;;;28.14;28.35;99039.50;1832194;76;28281;-80
2022/09/17 13:18:49;;;;;;;1.42;0.98;;;;;;;28.14;28.48;99039.50;1840873;76;28228;-72
2022/09/17 13:21:50;;;;;;;0.97;0.80;;;;;;;28.15;28.62;99033.69;1848164;76;28233;-79
2022/09/17 13:24:45;;;;;;;1.10;1.10;;;;;;;28.17;28.67;99026.52;1869550;76;33161;-79
2022/09/17 13:27:36;;;;;;;1.37;1.15;;;;;;;28.16;28.68;99041.42;1844954;76;28206;-79
2022/09/17 13:30:28;;;;;;;0.90;0.90;;;;;;;28.17;28.55;99015.47;1864373;76;28327;-80
2022/09/17 13:33:19;;;;;;;1.20;1.10;;;;;;;28.18;28.34;99046.11;1840115;76;28306;-79
2022/09/17 13:36:11;;;;;;;1.30;1.20;;;;;;;28.15;28.25;99037.83;1851776;76;28238;-80
2022/09/17 13:39:02;;;;;;;1.27;1.20;;;;;;;28.17;28.19;99043.89;1839233;76;28288;-80
2022/09/17 13:41:54;;;;;;;1.15;1.10;;;;;;;28.18;28.13;99041.41;1870858;75;28161;-81